Time;durP1;ratioP1;P1;durP2;ratioP2;P2;SDS_P1;SDS_P2;PMS_P1;PMS_P2;Temp;Humidity;BMP_temperature;BMP_pressure;BME280_temperature;BME280_humidity;BME280_pressure;Samples;Min_cycle;Max_cycle;Signal;HPM_P1;HPM_P2
2024/03/10 00:00:08;;;;;;;51.00;28.60;;;;;;;6.10;62.47;100350.69;107280;1297;22429;-54
2024/03/10 00:02:35;;;;;;;53.90;30.50;;;;;;;6.10;62.33;100350.69;107319;1311;22471;-55
2024/03/10 00:05:00;;;;;;;53.80;30.00;;;;;;;6.10;62.30;100348.13;107327;1316;22693;-54
2024/03/10 00:07:26;;;;;;;50.50;28.80;;;;;;;6.08;63.26;100347.27;107058;1314;22891;-54
2024/03/10 00:09:51;;;;;;;52.50;28.80;;;;;;;6.07;62.51;100349.33;106477;1295;25272;-53
2024/03/10 00:12:18;;;;;;;50.10;29.30;;;;;;;6.07;62.39;100351.73;106457;1301;22816;-56
2024/03/10 00:14:43;;;;;;;52.00;29.20;;;;;;;6.07;63.92;100350.70;106410;1310;22613;-53
2024/03/10 00:17:09;;;;;;;52.60;28.30;;;;;;;6.10;63.92;100352.58;106502;1316;24263;-55
2024/03/10 00:19:35;;;;;;;52.70;28.00;;;;;;;6.11;64.76;100351.72;106442;1295;22452;-54
2024/03/10 00:22:02;;;;;;;51.80;29.20;;;;;;;6.13;63.04;100348.46;106498;1316;22615;-53
2024/03/10 00:24:27;;;;;;;52.80;29.30;;;;;;;6.16;64.08;100351.19;106437;1310;22777;-53
2024/03/10 00:26:53;;;;;;;49.40;28.70;;;;;;;6.20;63.24;100348.45;106394;1316;22514;-54
2024/03/10 00:29:18;;;;;;;54.10;29.50;;;;;;;6.23;63.02;100345.00;106491;1311;23127;-54
2024/03/10 00:31:44;;;;;;;52.80;29.30;;;;;;;6.26;62.91;100345.32;106428;1295;22529;-53
2024/03/10 00:34:09;;;;;;;57.70;31.50;;;;;;;6.27;63.48;100342.06;106509;1316;22589;-51
2024/03/10 00:36:35;;;;;;;57.30;31.80;;;;;;;6.28;62.83;100345.48;106412;1316;23106;-54
2024/03/10 00:39:00;;;;;;;53.20;32.10;;;;;;;6.29;63.00;100341.54;106493;1309;22605;-51
2024/03/10 00:41:26;;;;;;;53.90;30.30;;;;;;;6.30;63.30;100338.28;106501;1297;25338;-54
2024/03/10 00:43:51;;;;;;;55.40;30.20;;;;;;;6.31;63.51;100332.98;106495;1316;22705;-50
2024/03/10 00:46:17;;;;;;;52.50;29.70;;;;;;;6.30;63.76;100332.64;106498;1316;23348;-54
2024/03/10 00:48:43;;;;;;;50.10;29.30;;;;;;;6.30;63.38;100333.66;106525;1301;25426;-52
2024/03/10 00:51:08;;;;;;;53.60;30.70;;;;;;;6.30;63.14;100333.15;106459;1294;22584;-54
2024/03/10 00:53:34;;;;;;;53.90;30.80;;;;;;;6.30;63.24;100329.73;106561;1311;22651;-53
2024/03/10 00:55:59;;;;;;;53.80;30.10;;;;;;;6.29;63.24;100330.42;106537;1316;22602;-53
2024/03/10 00:58:25;;;;;;;57.10;32.20;;;;;;;6.28;63.38;100325.80;106471;1310;24264;-54
2024/03/10 01:00:50;;;;;;;54.40;30.40;;;;;;;6.27;63.41;100325.29;106507;1294;22917;-51
2024/03/10 01:03:16;;;;;;;52.80;29.80;;;;;;;6.25;63.67;100317.09;106557;1311;22630;-54
2024/03/10 01:05:43;;;;;;;52.10;29.60;;;;;;;6.22;63.32;100319.52;106665;1308;23147;-53
2024/03/10 01:08:09;;;;;;;52.00;28.30;;;;;;;6.19;63.71;100318.66;106540;1316;22584;-51
2024/03/10 01:10:39;;;;;;;50.60;28.30;;;;;;;6.15;63.87;100317.14;106587;1295;22615;-53
2024/03/10 01:13:07;;;;;;;53.80;29.50;;;;;;;6.10;65.15;100317.84;106553;1316;22606;-53
2024/03/10 01:15:33;;;;;;;51.70;30.00;;;;;;;6.05;64.53;100314.09;106509;1311;22628;-55
2024/03/10 01:17:59;;;;;;;50.50;31.10;;;;;;;6.03;63.89;100314.60;106434;1316;23860;-55
2024/03/10 01:20:26;;;;;;;49.70;29.10;;;;;;;5.99;64.24;100316.84;106586;1316;22705;-54
2024/03/10 01:22:52;;;;;;;;;;;;;;;5.98;64.19;100318.03;106494;1301;22633;-52
2024/03/10 01:25:18;;;;;;;49.30;29.60;;;;;;;5.95;64.09;100316.49;106410;1308;22293;-54
2024/03/10 01:27:43;;;;;;;53.20;29.30;;;;;;;5.94;64.16;100318.38;106557;1304;22619;-56
2024/03/10 01:30:10;;;;;;;53.20;29.90;;;;;;;5.92;64.17;100315.99;106488;1316;22323;-52
2024/03/10 01:32:36;;;;;;;56.40;30.60;;;;;;;5.90;64.46;100315.48;106514;1294;22591;-52
2024/03/10 01:35:04;;;;;;;60.30;31.20;;;;;;;5.89;64.78;100308.98;106485;1311;22588;-50
2024/03/10 01:37:30;;;;;;;58.90;30.40;;;;;;;5.87;64.31;100307.59;106524;1316;22653;-52
2024/03/10 01:39:55;;;;;;;57.20;28.70;;;;;;;5.85;64.79;100304.67;106520;1311;22751;-50
2024/03/10 01:42:21;;;;;;;52.80;29.20;;;;;;;5.85;64.60;100302.45;106473;1297;22611;-52
2024/03/10 01:44:47;;;;;;;49.90;30.60;;;;;;;5.84;64.10;100299.55;106620;1316;22264;-49
2024/03/10 01:47:16;;;;;;;;;;;;;;;5.83;64.22;100301.43;106517;1316;22649;-52
2024/03/10 01:49:41;;;;;;;53.40;31.20;;;;;;;5.83;64.56;100302.80;106548;1316;25983;-51
2024/03/10 01:52:08;;;;;;;52.10;30.40;;;;;;;5.82;64.57;100305.71;106471;1297;22608;-51
2024/03/10 01:54:35;;;;;;;52.00;30.70;;;;;;;5.80;64.22;100304.68;106534;1314;22657;-54
2024/03/10 01:57:04;;;;;;;56.80;30.60;;;;;;;5.78;64.76;100304.00;106505;1315;22786;-54
2024/03/10 01:59:31;;;;;;;57.50;31.00;;;;;;;5.78;64.31;100304.52;106451;1316;22607;-54
2024/03/10 02:01:59;;;;;;;56.40;32.60;;;;;;;5.79;64.33;100298.53;106443;1297;22517;-51
2024/03/10 02:04:24;;;;;;;53.60;30.80;;;;;;;5.80;64.82;100298.02;106473;1301;23413;-53
2024/03/10 02:06:52;;;;;;;52.40;31.10;;;;;;;5.78;65.63;100300.41;106464;1314;24476;-54
2024/03/10 02:09:21;;;;;;;61.70;32.60;;;;;;;5.75;64.68;100295.97;106478;1314;22680;-54
2024/03/10 02:11:47;;;;;;;55.50;30.40;;;;;;;5.75;65.09;100295.12;106388;1292;26067;-51
2024/03/10 02:14:13;;;;;;;56.00;30.90;;;;;;;5.76;64.80;100291.35;106531;1309;22716;-53
2024/03/10 02:16:40;;;;;;;47.00;29.80;;;;;;;5.76;64.68;100285.88;106378;1316;22517;-54
2024/03/10 02:19:06;;;;;;;56.60;31.10;;;;;;;5.76;64.88;100284.85;106439;1310;22607;-53
2024/03/10 02:21:33;;;;;;;53.00;29.80;;;;;;;5.76;64.73;100282.63;106513;1308;22611;-52
2024/03/10 02:24:16;;;;;;;53.50;28.70;;;;;;;5.75;65.02;100284.85;106450;1297;24664;-54
2024/03/10 02:26:48;;;;;;;46.20;29.10;;;;;;;5.71;64.63;100279.94;106717;1316;22596;-51
2024/03/10 02:29:15;;;;;;;57.50;31.80;;;;;;;5.68;65.48;100278.91;106543;1314;22550;-55
2024/03/10 02:48:13;;;;;;;54.90;32.00;;;;;;;5.42;66.12;100271.06;106436;1314;22554;-54
2024/03/10 02:50:39;;;;;;;;;;;;;;;5.43;65.88;100274.31;106564;1316;22638;-55
2024/03/10 02:53:04;;;;;;;53.70;28.80;;;;;;;5.42;65.89;100272.95;106512;1292;21787;-51
2024/03/10 02:55:33;;;;;;;53.60;30.40;;;;;;;5.42;65.76;100270.22;106621;1301;22844;-52
2024/03/10 02:58:06;;;;;;;49.00;28.70;;;;;;;5.41;65.71;100269.88;106340;1311;233856;-55
2024/03/10 03:00:36;;;;;;;51.80;29.60;;;;;;;5.40;65.38;100269.53;106554;1310;22720;-53
2024/03/10 03:03:08;;;;;;;54.10;30.10;;;;;;;5.40;66.02;100269.87;106571;1294;22692;-51
2024/03/10 03:05:36;;;;;;;56.70;30.30;;;;;;;5.40;65.93;100272.61;106982;1308;22843;-52
2024/03/10 03:08:03;;;;;;;52.90;30.10;;;;;;;5.39;65.96;100271.41;106587;1314;22780;-56
2024/03/10 03:10:30;;;;;;;54.10;30.20;;;;;;;5.38;65.53;100272.79;106594;1298;22681;-53
2024/03/10 03:12:56;;;;;;;50.00;29.60;;;;;;;5.38;66.20;100271.07;106475;1311;22946;-54
2024/03/10 03:15:21;;;;;;;55.20;29.90;;;;;;;5.39;65.47;100270.73;106575;1298;23074;-52
2024/03/10 03:17:47;;;;;;;50.40;29.80;;;;;;;5.41;65.72;100270.21;106598;1307;22589;-53
2024/03/10 03:20:16;;;;;;;54.60;31.20;;;;;;;5.43;66.47;100267.48;106578;1301;22886;-54
2024/03/10 03:22:46;;;;;;;56.80;29.80;;;;;;;5.44;66.07;100269.02;106487;1316;22622;-52
2024/03/10 03:25:13;;;;;;;51.00;28.30;;;;;;;5.45;66.92;100267.48;106623;1298;23092;-50
2024/03/10 03:27:39;;;;;;;46.40;28.70;;;;;;;5.48;67.33;100271.41;106532;1315;22520;-51
2024/03/10 03:30:08;;;;;;;55.00;29.70;;;;;;;5.49;66.94;100271.91;106569;1311;22653;-54
2024/03/10 03:32:34;;;;;;;51.90;30.50;;;;;;;5.51;67.57;100270.55;106541;1314;22687;-55
2024/03/10 03:35:00;;;;;;;53.60;30.70;;;;;;;5.52;67.02;100266.96;106596;1297;22689;-54
2024/03/10 03:37:26;;;;;;;47.60;29.00;;;;;;;5.54;66.96;100264.73;106614;1310;22922;-52
2024/03/10 03:39:51;;;;;;;50.30;29.20;;;;;;;5.56;66.37;100267.47;106591;1310;22578;-51
2024/03/10 03:42:18;;;;;;;54.60;30.40;;;;;;;5.58;66.63;100271.92;106555;1304;24292;-52
2024/03/10 03:44:44;;;;;;;52.50;30.90;;;;;;;5.61;66.43;100268.14;106659;1294;22527;-52
2024/03/10 03:47:11;;;;;;;52.20;31.20;;;;;;;5.63;66.29;100263.19;106650;1314;22286;-52
2024/03/10 03:49:37;;;;;;;;;;;;;;;5.65;66.65;100263.35;106632;1309;22588;-52
2024/03/10 03:52:06;;;;;;;64.60;31.50;;;;;;;5.66;66.69;100261.98;106604;1309;22563;-52
2024/03/10 03:54:35;;;;;;;52.20;29.10;;;;;;;5.68;66.62;100261.98;106576;1297;22602;-53
2024/03/10 03:57:01;;;;;;;52.50;28.80;;;;;;;5.69;66.88;100256.51;106606;1310;22521;-53
2024/03/10 03:59:27;;;;;;;48.60;28.30;;;;;;;5.70;68.43;100258.05;106491;1310;22665;-54
2024/03/10 04:01:54;;;;;;;48.40;28.50;;;;;;;5.71;67.12;100256.67;106675;1310;22647;-53
2024/03/10 04:04:20;;;;;;;49.00;27.90;;;;;;;5.72;67.41;100259.21;106571;1292;22595;-53
2024/03/10 04:06:45;;;;;;;49.00;28.70;;;;;;;5.73;67.31;100259.89;106548;1314;24243;-52
2024/03/10 04:09:12;;;;;;;49.70;28.10;;;;;;;5.74;67.28;100254.07;106627;1316;22570;-50
2024/03/10 04:11:39;;;;;;;48.40;29.30;;;;;;;5.75;67.20;100256.30;106588;1311;22559;-52
2024/03/10 04:14:06;;;;;;;;;;;;;;;5.76;68.20;100253.73;106647;1316;25262;-49
2024/03/10 04:16:34;;;;;;;49.00;26.50;;;;;;;5.76;68.15;100248.42;106623;1297;22617;-54
2024/03/10 04:18:59;;;;;;;52.40;29.40;;;;;;;5.76;68.15;100252.18;106670;1315;22605;-51
2024/03/10 04:21:25;;;;;;;54.30;28.80;;;;;;;5.76;67.87;100248.77;106670;1314;23971;-53
2024/03/10 04:23:51;;;;;;;53.90;30.00;;;;;;;5.76;67.70;100252.70;106681;1301;22618;-51
2024/03/10 04:26:22;;;;;;;48.70;27.60;;;;;;;5.76;67.39;100249.63;106595;1316;22954;-52
2024/03/10 04:28:49;;;;;;;52.50;29.60;;;;;;;5.74;67.84;100246.38;106517;1316;22569;-49
2024/03/10 04:31:16;;;;;;;54.20;30.10;;;;;;;5.73;68.15;100248.77;106584;1316;22733;-52
2024/03/10 04:33:42;;;;;;;50.30;27.80;;;;;;;5.71;68.22;100250.35;106598;1301;22611;-52
2024/03/10 04:36:11;;;;;;;52.20;29.80;;;;;;;5.72;68.48;100246.06;106611;1298;22635;-51
2024/03/10 04:38:38;;;;;;;49.80;29.90;;;;;;;5.72;67.90;100244.00;106617;1304;22755;-53
2024/03/10 04:41:05;;;;;;;50.60;28.30;;;;;;;5.72;68.02;100239.39;106668;1308;22597;-48
2024/03/10 04:43:30;;;;;;;47.80;28.90;;;;;;;5.72;68.38;100237.85;106644;1310;22647;-53
2024/03/10 04:45:58;;;;;;;50.90;30.20;;;;;;;5.72;67.95;100236.48;106628;1297;22500;-50
2024/03/10 04:48:24;;;;;;;56.20;30.90;;;;;;;5.71;67.73;100237.02;106633;1316;22612;-50
2024/03/10 04:50:49;;;;;;;56.30;30.70;;;;;;;5.70;67.94;100240.09;106668;1298;22651;-53
2024/03/10 04:53:15;;;;;;;58.70;31.50;;;;;;;5.71;67.52;100243.84;106644;1310;25640;-51
2024/03/10 04:55:41;;;;;;;50.90;30.00;;;;;;;5.71;67.42;100240.95;106636;1294;22617;-51
2024/03/10 04:58:08;;;;;;;53.70;29.90;;;;;;;5.72;67.43;100240.05;106705;1314;22997;-52
2024/03/10 05:00:33;;;;;;;44.90;28.50;;;;;;;5.73;68.10;100239.54;106616;1301;22720;-53
2024/03/10 05:03:05;;;;;;;53.00;29.40;;;;;;;5.72;69.33;100243.14;106613;1308;23012;-53
2024/03/10 05:05:32;;;;;;;49.50;28.60;;;;;;;5.70;67.91;100244.54;106615;1295;22595;-52
2024/03/10 05:07:58;;;;;;;53.50;29.90;;;;;;;5.70;67.95;100240.60;106610;1311;22589;-49
2024/03/10 05:10:23;;;;;;;54.50;30.00;;;;;;;5.70;67.70;100236.84;106619;1310;22594;-53
2024/03/10 05:12:49;;;;;;;54.00;30.50;;;;;;;5.70;68.03;100240.09;106665;1316;22544;-51
2024/03/10 05:15:15;;;;;;;50.80;29.80;;;;;;;5.70;67.78;100239.40;106520;1316;22710;-50
2024/03/10 05:17:41;;;;;;;52.60;30.40;;;;;;;5.71;67.60;100241.45;106605;1298;22599;-50
2024/03/10 05:20:09;;;;;;;46.70;29.10;;;;;;;5.70;67.68;100241.46;106568;1316;22660;-52
2024/03/10 05:22:36;;;;;;;61.00;31.10;;;;;;;5.68;69.49;100244.02;106609;1310;22635;-53
2024/03/10 05:25:02;;;;;;;52.60;30.30;;;;;;;5.63;68.92;100245.74;106670;1316;22542;-53
2024/03/10 05:27:27;;;;;;;50.40;30.60;;;;;;;5.60;69.66;100247.64;106623;1298;22821;-54
2024/03/10 05:29:53;;;;;;;53.20;28.80;;;;;;;5.60;69.03;100244.73;106575;1311;22948;-53
2024/03/10 05:32:19;;;;;;;50.90;29.50;;;;;;;5.59;68.41;100251.23;106612;1302;23277;-52
2024/03/10 05:34:46;;;;;;;53.70;30.60;;;;;;;5.59;68.48;100253.11;106647;1316;22865;-51
2024/03/10 05:37:14;;;;;;;52.70;31.20;;;;;;;5.58;68.93;100250.36;106609;1298;22664;-50
2024/03/10 05:39:39;;;;;;;51.20;31.10;;;;;;;5.59;68.32;100250.20;106646;1314;22559;-52
2024/03/10 05:42:05;;;;;;;56.40;31.20;;;;;;;5.60;68.19;100250.70;106613;1316;22236;-49
2024/03/10 05:44:33;;;;;;;52.60;29.60;;;;;;;5.62;69.14;100250.20;106650;1301;22605;-53
2024/03/10 05:47:00;;;;;;;50.40;29.90;;;;;;;5.62;68.33;100247.12;106565;1295;22600;-54
2024/03/10 05:49:27;;;;;;;52.00;31.10;;;;;;;5.62;67.83;100244.38;106585;1310;22588;-52
2024/03/10 05:51:54;;;;;;;48.00;29.90;;;;;;;5.64;68.53;100239.59;106629;1311;22519;-54
2024/03/10 05:54:21;;;;;;;50.40;29.40;;;;;;;5.66;68.57;100240.77;106646;1316;23416;-52
2024/03/10 05:56:47;;;;;;;52.90;29.70;;;;;;;5.66;68.11;100243.68;106394;1300;23020;-53
2024/03/10 05:59:13;;;;;;;52.20;30.50;;;;;;;5.69;68.03;100242.48;106599;1314;22658;-51
2024/03/10 06:01:39;;;;;;;46.60;28.90;;;;;;;5.70;68.26;100244.87;106653;1310;22665;-54
2024/03/10 06:04:06;;;;;;;48.60;29.70;;;;;;;5.71;68.27;100240.42;106687;1301;22633;-52
2024/03/10 06:06:33;;;;;;;54.60;30.60;;;;;;;5.71;68.99;100246.24;106653;1308;22595;-52
2024/03/10 06:09:00;;;;;;;54.80;31.20;;;;;;;5.70;69.16;100250.35;106604;1315;22602;-51
2024/03/10 06:11:26;;;;;;;51.30;30.60;;;;;;;5.72;68.22;100250.34;106741;1312;22875;-52
2024/03/10 06:13:51;;;;;;;53.40;30.70;;;;;;;5.75;68.41;100253.39;106700;1301;22593;-53
2024/03/10 06:16:17;;;;;;;53.60;30.40;;;;;;;5.78;68.38;100256.29;106612;1316;22886;-50
2024/03/10 06:26:56;;;;;;;53.50;29.10;;;;;;;5.80;68.96;100257.65;106256;1295;22621;-53
2024/03/10 06:29:23;;;;;;;48.40;29.00;;;;;;;5.82;68.53;100256.27;106156;1297;22542;-50
2024/03/10 06:31:51;;;;;;;51.80;29.30;;;;;;;5.85;68.86;100259.18;106368;1316;22610;-51
2024/03/10 06:34:20;;;;;;;49.40;29.00;;;;;;;5.87;68.70;100258.84;106299;1311;22863;-53
2024/03/10 06:36:46;;;;;;;47.90;28.50;;;;;;;5.91;68.84;100265.02;106518;1310;22740;-52
2024/03/10 06:39:16;;;;;;;53.70;30.20;;;;;;;5.93;68.60;100263.64;106634;1297;22918;-52
2024/03/10 06:41:41;;;;;;;50.50;30.20;;;;;;;5.93;68.49;100260.39;106569;1308;22642;-50
2024/03/10 06:44:07;;;;;;;49.30;27.90;;;;;;;5.96;68.82;100256.79;106376;1295;22672;-50
2024/03/10 06:46:33;;;;;;;45.10;27.40;;;;;;;5.98;68.84;100252.16;105842;1310;22643;-50
2024/03/10 06:48:59;;;;;;;44.00;27.20;;;;;;;5.99;68.56;100255.23;105001;1297;22565;-53
2024/03/10 06:51:24;;;;;;;46.30;27.40;;;;;;;6.02;69.01;100262.08;105014;1310;22549;-54
2024/03/10 06:53:50;;;;;;;49.60;27.30;;;;;;;6.04;69.01;100257.97;105013;1308;25510;-49
2024/03/10 06:56:15;;;;;;;49.50;29.10;;;;;;;6.05;68.93;100253.52;104585;1304;23065;-49
2024/03/10 06:58:43;;;;;;;44.60;26.60;;;;;;;6.08;68.44;100254.88;104832;1298;22534;-53
2024/03/10 07:01:10;;;;;;;47.80;27.50;;;;;;;6.11;69.27;100263.41;105747;1310;22646;-51
2024/03/10 07:03:36;;;;;;;42.40;26.10;;;;;;;6.14;69.10;100252.80;107182;1311;22226;-54
2024/03/10 07:06:03;;;;;;;43.80;26.60;;;;;;;6.16;69.39;100257.41;107153;1310;22348;-53
2024/03/10 07:08:30;;;;;;;44.80;27.10;;;;;;;6.18;69.21;100254.48;107135;1301;22334;-52
2024/03/10 07:10:56;;;;;;;38.70;24.50;;;;;;;6.21;69.18;100253.80;107170;1300;22232;-51
2024/03/10 07:13:21;;;;;;;47.30;25.90;;;;;;;6.24;68.96;100256.00;107158;1308;22417;-51
2024/03/10 07:15:47;;;;;;;45.50;25.60;;;;;;;6.26;68.76;100259.73;106525;1313;22566;-50
2024/03/10 07:18:16;;;;;;;44.40;27.50;;;;;;;6.28;68.53;100253.39;105142;1293;22561;-51
2024/03/10 07:20:42;;;;;;;47.30;28.10;;;;;;;6.30;69.35;100250.48;105371;1301;22743;-53
2024/03/10 07:23:09;;;;;;;41.20;25.70;;;;;;;6.30;68.67;100248.94;105044;1307;22802;-52
2024/03/10 07:25:35;;;;;;;44.40;27.80;;;;;;;6.31;69.25;100257.32;104932;1310;22572;-54
2024/03/10 07:28:00;;;;;;;43.80;26.20;;;;;;;6.32;68.97;100257.31;104770;1302;25314;-52
2024/03/10 07:30:26;;;;;;;40.70;25.20;;;;;;;6.32;69.28;100261.77;104828;1298;22524;-54
2024/03/10 07:32:53;;;;;;;46.40;27.30;;;;;;;6.33;69.33;100259.36;104673;1301;22562;-54
2024/03/10 07:35:21;;;;;;;43.10;25.20;;;;;;;6.33;69.83;100259.71;104803;1314;22553;-55
2024/03/10 07:37:47;;;;;;;45.10;26.80;;;;;;;6.31;69.02;100259.88;104816;1316;22547;-54
2024/03/10 07:40:19;;;;;;;44.90;26.70;;;;;;;6.34;68.82;100258.51;104879;1298;22728;-53
2024/03/10 07:42:47;;;;;;;44.10;26.80;;;;;;;6.37;69.03;100254.72;104723;1302;22618;-53
2024/03/10 07:45:17;;;;;;;43.40;27.00;;;;;;;6.39;68.78;100254.89;104538;1301;22574;-51
2024/03/10 07:47:45;;;;;;;48.40;27.50;;;;;;;6.39;68.76;100253.17;104085;1310;22579;-55
2024/03/10 07:50:15;;;;;;;41.50;26.10;;;;;;;6.40;69.47;100252.83;106994;1297;22230;-52
2024/03/10 07:52:41;;;;;;;48.60;29.30;;;;;;;6.41;69.86;100245.80;106909;1313;22618;-54
2024/03/10 07:55:09;;;;;;;40.90;25.80;;;;;;;6.44;69.83;100238.27;104222;1308;22887;-55
2024/03/10 07:57:34;;;;;;;44.50;28.00;;;;;;;6.45;69.60;100245.61;106955;1310;22400;-56
2024/03/10 08:00:05;;;;;;;53.90;31.80;;;;;;;6.46;69.57;100248.52;105052;1297;24314;-55
2024/03/10 08:02:31;;;;;;;50.60;30.10;;;;;;;6.50;69.28;100234.10;103233;1311;22577;-52
2024/03/10 08:04:57;;;;;;;43.30;25.60;;;;;;;6.53;70.27;100242.66;103283;1308;25398;-55
2024/03/10 08:07:23;;;;;;;39.60;25.10;;;;;;;6.54;69.74;100238.02;103197;1304;25258;-55
2024/03/10 08:09:48;;;;;;;44.00;26.70;;;;;;;6.54;69.74;100243.34;103267;1295;23054;-55
2024/03/10 08:12:14;;;;;;;42.40;26.10;;;;;;;6.54;69.52;100241.29;103373;1301;22563;-55
2024/03/10 08:14:39;;;;;;;42.90;25.80;;;;;;;6.56;69.75;100244.17;103320;1316;25363;-51
2024/03/10 08:17:05;;;;;;;39.60;23.60;;;;;;;6.58;70.12;100249.14;103174;1316;22633;-57
2024/03/10 08:19:34;;;;;;;43.30;25.60;;;;;;;6.60;69.67;100238.52;103273;1298;22532;-53
2024/03/10 08:22:00;;;;;;;43.60;26.70;;;;;;;6.65;69.79;100235.22;103301;1301;23871;-55
2024/03/10 08:24:28;;;;;;;42.40;26.40;;;;;;;6.70;69.91;100242.56;103338;1311;22556;-55
2024/03/10 08:26:54;;;;;;;43.10;27.20;;;;;;;6.74;69.40;100247.67;103238;1316;22647;-56
2024/03/10 08:29:20;;;;;;;45.60;24.60;;;;;;;6.78;69.72;100249.33;103178;1314;26907;-54
2024/03/10 08:31:45;;;;;;;45.10;26.00;;;;;;;6.80;69.66;100253.43;103254;1316;22531;-54
2024/03/10 08:34:11;;;;;;;41.60;25.70;;;;;;;6.81;69.56;100257.02;103303;1316;24333;-56
2024/03/10 08:36:39;;;;;;;40.30;25.50;;;;;;;6.81;69.68;100260.29;104387;1310;22570;-55
2024/03/10 08:39:09;;;;;;;45.00;27.00;;;;;;;6.78;70.21;100252.60;104868;1310;22628;-56
2024/03/10 08:41:35;;;;;;;42.90;24.90;;;;;;;6.75;69.95;100240.30;107139;1312;22271;-55
2024/03/10 08:44:03;;;;;;;47.00;29.00;;;;;;;6.71;70.46;100236.56;107212;1308;22434;-56
2024/03/10 08:46:32;;;;;;;43.20;27.50;;;;;;;6.70;70.65;100236.41;107184;1311;22232;-56
2024/03/10 08:48:58;;;;;;;47.90;27.00;;;;;;;6.71;70.60;100237.77;106353;1307;951803;-55
2024/03/10 08:51:23;;;;;;;47.70;28.00;;;;;;;6.76;71.00;100239.08;107138;1311;22257;-55
2024/03/10 08:53:49;;;;;;;47.90;28.60;;;;;;;6.86;70.14;100240.36;107247;1314;22357;-57
2024/03/10 08:56:15;;;;;;;49.60;28.80;;;;;;;6.96;70.12;100236.70;107324;1313;22379;-56
2024/03/10 08:58:41;;;;;;;51.20;28.50;;;;;;;7.06;70.20;100233.55;107329;1314;22234;-55
2024/03/10 09:01:07;;;;;;;43.20;27.20;;;;;;;7.14;69.98;100237.25;107158;1295;22214;-51
2024/03/10 09:03:33;;;;;;;44.00;27.50;;;;;;;7.20;69.84;100236.69;107237;1313;22236;-54
2024/03/10 09:05:59;;;;;;;43.40;27.60;;;;;;;7.24;69.68;100232.38;107136;1308;22397;-53
2024/03/10 09:08:24;;;;;;;46.10;28.10;;;;;;;7.29;70.41;100227.86;107256;1308;22402;-55
2024/03/10 09:10:50;;;;;;;41.40;26.10;;;;;;;7.33;71.15;100238.95;107081;1294;22447;-53
2024/03/10 09:13:16;;;;;;;42.20;25.50;;;;;;;7.40;70.55;100240.95;107102;1308;22776;-52
2024/03/10 09:15:42;;;;;;;39.30;25.20;;;;;;;7.48;69.97;100243.79;107211;1314;22437;-54
2024/03/10 09:18:08;;;;;;;38.60;25.10;;;;;;;7.56;69.67;100242.85;107172;1307;22434;-52
2024/03/10 09:20:34;;;;;;;41.20;25.60;;;;;;;7.64;69.78;100235.73;105867;1292;23827;-53
2024/03/10 09:23:01;;;;;;;39.40;25.80;;;;;;;7.71;69.17;100229.52;104470;1313;24342;-58
2024/03/10 09:25:30;;;;;;;39.70;23.80;;;;;;;7.75;69.34;100237.34;104700;1301;22821;-56
2024/03/10 09:27:56;;;;;;;41.00;25.40;;;;;;;7.81;69.13;100251.67;106397;1289;22659;-55
2024/03/10 09:30:23;;;;;;;38.90;24.90;;;;;;;7.84;68.99;100245.63;104506;1308;22076;-57
2024/03/10 09:32:54;;;;;;;;;;;;;;;7.89;69.24;100243.70;107173;1296;22407;-57
2024/03/10 09:35:28;;;;;;;39.80;25.70;;;;;;;7.94;68.83;100244.49;104242;1315;22591;-55
2024/03/10 09:37:54;;;;;;;40.00;24.60;;;;;;;7.98;68.73;100242.21;105178;1310;22652;-53
2024/03/10 09:40:31;;;;;;;40.50;24.80;;;;;;;8.00;68.78;100252.84;103619;1304;22855;-56
2024/03/10 09:42:59;;;;;;;40.60;25.90;;;;;;;7.99;68.69;100258.17;103364;1298;22616;-59
2024/03/10 09:45:27;;;;;;;37.50;24.70;;;;;;;8.03;68.64;100256.41;103876;1308;22595;-58
2024/03/10 09:47:53;;;;;;;38.20;25.00;;;;;;;8.07;68.79;100256.20;103917;1306;22577;-55
2024/03/10 09:50:24;;;;;;;43.60;27.80;;;;;;;8.11;68.56;100249.29;103710;1299;22579;-58
2024/03/10 09:52:55;;;;;;;45.70;25.60;;;;;;;8.16;68.77;100249.39;103443;1298;22801;-56
2024/03/10 09:55:21;;;;;;;36.60;23.30;;;;;;;8.20;68.48;100250.54;107132;1314;22245;-55
2024/03/10 09:57:59;;;;;;;41.20;26.50;;;;;;;8.22;68.02;100246.55;107150;1311;23120;-56
2024/03/10 10:00:27;;;;;;;39.70;24.80;;;;;;;8.25;67.95;100239.31;107186;1308;22236;-56
2024/03/10 10:03:02;;;;;;;39.00;23.90;;;;;;;8.26;67.97;100233.47;107271;1295;22850;-57
2024/03/10 10:05:38;;;;;;;40.70;25.60;;;;;;;8.28;67.87;100231.04;106923;1313;92397;-55
2024/03/10 10:08:10;;;;;;;44.50;27.30;;;;;;;8.31;67.67;100230.31;107139;1307;22387;-55
2024/03/10 10:10:37;;;;;;;38.40;24.90;;;;;;;8.37;68.05;100223.71;107183;1314;22237;-57
2024/03/10 10:13:08;;;;;;;41.70;27.00;;;;;;;8.44;68.02;100217.27;107065;1297;22246;-56
2024/03/10 10:15:34;;;;;;;43.80;27.50;;;;;;;8.50;68.15;100213.23;107102;1315;22243;-55
2024/03/10 10:18:01;;;;;;;38.80;25.00;;;;;;;8.57;68.12;100210.39;107119;1309;22359;-55
2024/03/10 10:20:28;;;;;;;;;;;;;;;8.66;68.06;100204.24;107200;1314;22416;-54
2024/03/10 10:22:56;;;;;;;36.60;25.00;;;;;;;8.76;67.93;100198.60;107096;1298;22248;-55
2024/03/10 10:25:25;;;;;;;42.20;26.60;;;;;;;8.86;67.64;100196.70;107143;1314;22213;-56
2024/03/10 10:27:52;;;;;;;34.30;23.10;;;;;;;8.99;67.48;100195.80;107219;1307;22415;-55
2024/03/10 10:30:21;;;;;;;40.20;25.10;;;;;;;9.12;66.78;100193.19;107159;1314;22474;-56
2024/03/10 10:32:48;;;;;;;42.70;24.80;;;;;;;9.24;66.92;100190.39;107093;1298;22275;-52
2024/03/10 10:35:16;;;;;;;34.10;22.70;;;;;;;9.37;66.64;100188.43;107074;1315;22258;-55
2024/03/10 10:37:44;;;;;;;35.80;24.00;;;;;;;9.42;65.42;100187.11;107115;1315;22373;-55
2024/03/10 10:40:11;;;;;;;37.30;24.00;;;;;;;9.50;65.63;100180.61;107067;1308;22763;-57
2024/03/10 10:42:39;;;;;;;35.00;23.40;;;;;;;9.61;66.09;100176.27;107101;1305;22244;-55
2024/03/10 10:45:08;;;;;;;34.10;22.60;;;;;;;9.76;66.26;100173.23;107191;1314;22220;-55
2024/03/10 10:47:33;;;;;;;35.10;22.90;;;;;;;9.89;64.84;100169.33;107140;1308;22955;-56
2024/03/10 10:49:59;;;;;;;36.80;23.30;;;;;;;10.02;65.31;100166.13;107148;1308;22338;-56
2024/03/10 10:52:25;;;;;;;33.60;24.30;;;;;;;10.25;65.07;100167.23;107130;1301;22385;-56
2024/03/10 10:54:50;;;;;;;36.80;22.50;;;;;;;10.50;63.46;100164.05;107106;1309;22718;-56
2024/03/10 10:57:17;;;;;;;33.80;22.70;;;;;;;10.79;63.94;100163.02;107083;1310;22215;-55
2024/03/10 10:59:48;;;;;;;36.00;23.00;;;;;;;11.21;63.94;100159.88;107026;1308;22690;-54
2024/03/10 11:02:23;;;;;;;30.10;20.40;;;;;;;11.76;63.78;100158.71;107049;1298;22214;-56
2024/03/10 11:04:53;;;;;;;31.70;20.80;;;;;;;12.22;61.31;100156.00;107089;1292;22213;-56
2024/03/10 11:07:18;;;;;;;26.50;19.60;;;;;;;12.70;59.08;100156.72;107127;1311;22239;-55
2024/03/10 11:09:44;;;;;;;30.80;21.30;;;;;;;12.90;58.51;100154.17;107168;1311;22965;-56
2024/03/10 11:12:22;;;;;;;29.40;19.60;;;;;;;12.78;60.32;100160.27;107110;1314;22225;-57
2024/03/10 11:14:49;;;;;;;28.40;19.20;;;;;;;12.55;59.00;100158.77;106936;1298;22300;-56
2024/03/10 11:17:17;;;;;;;27.70;19.90;;;;;;;12.23;58.61;100167.38;107006;1315;22245;-56
2024/03/10 11:19:46;;;;;;;31.10;19.00;;;;;;;11.98;59.19;100171.43;107091;1311;22216;-56
2024/03/10 11:22:14;;;;;;;26.00;18.10;;;;;;;11.81;58.38;100172.94;107044;1311;22217;-54
2024/03/10 11:24:40;;;;;;;27.50;20.60;;;;;;;11.72;59.64;100174.20;107035;1298;22950;-52
2024/03/10 11:27:21;;;;;;;26.30;19.90;;;;;;;11.67;59.20;100172.09;107077;1308;22319;-55
2024/03/10 11:29:48;;;;;;;30.10;19.40;;;;;;;11.49;58.57;100172.05;107171;1311;22299;-55
2024/03/10 11:32:31;;;;;;;27.30;17.30;;;;;;;11.31;58.00;100162.73;107103;1314;22316;-57
2024/03/10 11:35:06;;;;;;;26.50;18.80;;;;;;;11.19;59.71;100158.02;104971;1308;22583;-53